createdAt,value
2023-05-24T00:00:45.261Z,39.28
2023-05-24T00:01:45.270Z,39.31
2023-05-24T00:02:45.283Z,39.21
2023-05-24T00:03:45.388Z,39.22
2023-05-24T00:04:45.414Z,39.21
2023-05-24T00:05:45.205Z,39.19
2023-05-24T00:06:45.221Z,39.13
2023-05-24T00:07:45.231Z,39.19
2023-05-24T00:08:45.215Z,39.16
2023-05-24T00:09:45.178Z,39.11
2023-05-24T00:10:45.203Z,39.12
2023-05-24T00:11:45.165Z,39.06
2023-05-24T00:12:45.172Z,39.06
2023-05-24T00:13:45.173Z,39.10
2023-05-24T00:14:45.154Z,39.06
2023-05-24T00:15:45.147Z,39.07
2023-05-24T00:16:45.163Z,39.04
2023-05-24T00:17:45.177Z,39.06
2023-05-24T00:18:45.142Z,39.05
2023-05-24T00:19:45.147Z,39.04
2023-05-24T00:20:45.389Z,39.00
2023-05-24T00:21:45.092Z,39.01
2023-05-24T00:22:45.107Z,38.98
2023-05-24T00:23:45.093Z,38.99
2023-05-24T00:24:45.108Z,38.99
2023-05-24T00:25:45.106Z,38.96
2023-05-24T00:26:45.086Z,38.94
2023-05-24T00:27:45.084Z,38.93
2023-05-24T00:28:45.075Z,38.92
2023-05-24T00:29:45.040Z,38.94
2023-05-24T00:30:45.125Z,38.89
2023-05-24T00:31:45.199Z,38.83
2023-05-24T00:32:45.081Z,38.84
2023-05-24T00:33:45.031Z,38.75
2023-05-24T00:34:45.037Z,38.74
2023-05-24T00:35:45.035Z,38.71
2023-05-24T00:36:45.065Z,38.69
2023-05-24T00:37:45.087Z,38.69
2023-05-24T00:38:45.004Z,38.69
2023-05-24T00:39:44.981Z,38.65
2023-05-24T00:40:44.999Z,38.60
2023-05-24T00:41:44.998Z,38.61
2023-05-24T00:42:44.995Z,38.60
2023-05-24T00:43:44.979Z,38.56
2023-05-24T00:44:44.949Z,38.53
2023-05-24T00:45:44.959Z,38.48
2023-05-24T00:46:44.966Z,38.47
2023-05-24T00:47:44.949Z,38.45
2023-05-24T00:48:44.947Z,38.47
2023-05-24T00:49:44.973Z,38.41
2023-05-24T00:50:44.905Z,38.40
2023-05-24T00:51:44.911Z,38.47
2023-05-24T00:52:44.952Z,38.40
2023-05-24T00:53:44.916Z,38.34
2023-05-24T00:54:44.875Z,38.32
2023-05-24T00:55:44.896Z,38.32
2023-05-24T00:56:44.876Z,38.29
2023-05-24T00:57:44.855Z,38.32
2023-05-24T00:58:44.888Z,38.25
2023-05-24T00:59:44.849Z,38.25
2023-05-24T01:00:44.866Z,38.22
2023-05-24T01:01:44.908Z,38.23
2023-05-24T01:02:44.886Z,38.20
2023-05-24T01:03:44.906Z,38.16
2023-05-24T01:04:44.831Z,38.16
2023-05-24T01:05:44.800Z,38.15
2023-05-24T01:06:44.861Z,38.17
2023-05-24T01:07:44.803Z,38.17
2023-05-24T01:08:44.805Z,38.15
2023-05-24T01:09:44.797Z,38.19
2023-05-24T01:10:44.857Z,38.16
2023-05-24T01:11:44.804Z,38.15
2023-05-24T01:12:44.779Z,38.15
2023-05-24T01:13:44.769Z,38.13
2023-05-24T01:14:44.796Z,38.10
2023-05-24T01:15:44.825Z,38.13
2023-05-24T01:16:44.771Z,38.06
2023-05-24T01:17:44.776Z,38.07
2023-05-24T01:18:44.773Z,38.03
2023-05-24T01:19:44.813Z,38.06
2023-05-24T01:20:45.283Z,38.02
2023-05-24T01:21:44.806Z,38.01
2023-05-24T01:22:44.778Z,38.02
2023-05-24T01:23:44.828Z,38.02
2023-05-24T01:24:44.816Z,38.02
2023-05-24T01:25:44.829Z,38.02
2023-05-24T01:26:44.828Z,37.97
2023-05-24T01:27:44.842Z,37.94
2023-05-24T01:28:44.857Z,38.02
2023-05-24T01:29:44.852Z,38.01
2023-05-24T01:30:44.947Z,37.95
2023-05-24T01:31:44.990Z,37.97
2023-05-24T01:32:44.898Z,37.96
2023-05-24T01:33:44.907Z,37.95
2023-05-24T01:34:44.916Z,38.00
2023-05-24T01:35:44.928Z,37.97
2023-05-24T01:36:44.929Z,37.94
2023-05-24T01:37:44.925Z,37.90
2023-05-24T01:38:44.957Z,37.89
2023-05-24T01:39:44.961Z,37.90
2023-05-24T01:40:45.171Z,37.88
2023-05-24T01:41:44.972Z,37.83
2023-05-24T01:42:45.012Z,37.82
2023-05-24T01:43:45.007Z,37.84
2023-05-24T01:44:45.421Z,37.85
2023-05-24T01:45:45.043Z,37.84
2023-05-24T01:46:45.042Z,37.82
2023-05-24T01:47:45.128Z,37.83
2023-05-24T01:48:45.062Z,37.78
2023-05-24T01:49:45.077Z,37.78
2023-05-24T01:50:45.093Z,37.75
2023-05-24T01:51:45.149Z,37.75
2023-05-24T01:52:45.091Z,37.74
2023-05-24T01:53:45.122Z,37.72
2023-05-24T01:54:45.144Z,37.75
2023-05-24T01:55:45.139Z,37.75
2023-05-24T01:56:45.168Z,37.74
2023-05-24T01:57:45.159Z,37.74
2023-05-24T01:58:45.180Z,37.69
2023-05-24T01:59:45.149Z,37.68
2023-05-24T02:00:45.345Z,37.68
2023-05-24T02:01:45.181Z,37.70
2023-05-24T02:02:45.335Z,37.69
2023-05-24T02:03:45.186Z,37.68
2023-05-24T02:04:45.184Z,37.69
2023-05-24T02:05:45.217Z,37.62
2023-05-24T02:06:45.244Z,37.69
2023-05-24T02:07:45.215Z,37.65
2023-05-24T02:08:45.228Z,37.64
2023-05-24T02:09:45.271Z,37.61
2023-05-24T02:10:45.266Z,37.53
2023-05-24T02:11:45.242Z,37.57
2023-05-24T02:12:45.250Z,37.53
2023-05-24T02:13:45.282Z,37.53
2023-05-24T02:14:45.300Z,37.56
2023-05-24T02:15:45.324Z,37.54
2023-05-24T02:16:45.292Z,37.56
2023-05-24T02:17:45.303Z,37.56
2023-05-24T02:18:45.323Z,37.52
2023-05-24T02:19:45.324Z,37.56
2023-05-24T02:20:45.614Z,37.49
2023-05-24T02:21:45.329Z,37.54
2023-05-24T02:22:45.351Z,37.53
2023-05-24T02:23:45.324Z,37.49
2023-05-24T02:24:45.357Z,37.48
2023-05-24T02:25:45.377Z,37.49
2023-05-24T02:26:45.374Z,37.49
2023-05-24T02:27:45.379Z,37.43
2023-05-24T02:28:45.387Z,37.44
2023-05-24T02:29:45.417Z,37.41
2023-05-24T02:30:45.619Z,37.43
2023-05-24T02:31:45.418Z,37.41
2023-05-24T02:32:45.559Z,37.39
2023-05-24T02:33:45.419Z,37.40
2023-05-24T02:34:45.477Z,37.40
2023-05-24T02:35:45.448Z,37.43
2023-05-24T02:36:45.460Z,37.39
2023-05-24T02:37:45.455Z,37.35
2023-05-24T02:38:45.476Z,37.31
2023-05-24T02:39:45.473Z,37.35
2023-05-24T02:40:45.513Z,37.36
2023-05-24T02:41:45.526Z,37.32
2023-05-24T02:42:45.531Z,37.32
2023-05-24T02:43:45.518Z,37.35
2023-05-24T02:44:45.556Z,37.28
2023-05-24T02:45:45.550Z,37.27
2023-05-24T02:46:45.670Z,37.30
2023-05-24T02:47:45.622Z,37.30
2023-05-24T02:48:45.612Z,37.28
2023-05-24T02:49:45.589Z,37.27
2023-05-24T02:50:45.623Z,37.30
2023-05-24T02:51:45.620Z,37.31
2023-05-24T02:52:45.653Z,37.28
2023-05-24T02:53:45.657Z,37.31
2023-05-24T02:54:45.655Z,37.35
2023-05-24T02:55:45.660Z,37.31
2023-05-24T02:56:45.653Z,37.30
2023-05-24T02:57:45.717Z,37.30
2023-05-24T02:58:45.724Z,37.27
2023-05-24T02:59:45.737Z,37.23
2023-05-24T03:00:45.741Z,37.18
2023-05-24T03:01:45.893Z,37.19
2023-05-24T03:02:45.798Z,37.19
2023-05-24T03:03:45.799Z,37.18
2023-05-24T03:04:45.757Z,37.19
2023-05-24T03:05:45.770Z,37.19
2023-05-24T03:06:45.771Z,37.15
2023-05-24T03:07:45.774Z,37.19
2023-05-24T03:08:45.804Z,37.19
2023-05-24T03:09:45.812Z,37.19
2023-05-24T03:10:45.808Z,37.14
2023-05-24T03:11:45.824Z,37.15
2023-05-24T03:12:45.860Z,37.10
2023-05-24T03:13:45.861Z,37.06
2023-05-24T03:14:45.862Z,37.06
2023-05-24T03:15:45.923Z,37.07
2023-05-24T03:16:45.947Z,37.05
2023-05-24T03:17:45.931Z,37.07
2023-05-24T03:18:45.922Z,37.04
2023-05-24T03:19:45.920Z,37.05
2023-05-24T03:20:45.958Z,37.03
2023-05-24T03:21:45.950Z,37.07
2023-05-24T03:22:45.977Z,37.02
2023-05-24T03:23:46.004Z,36.99
2023-05-24T03:24:46.007Z,37.02
2023-05-24T03:25:46.004Z,36.99
2023-05-24T03:26:46.012Z,37.03
2023-05-24T03:27:46.009Z,37.02
2023-05-24T03:28:46.048Z,36.98
2023-05-24T03:29:46.037Z,37.01
2023-05-24T03:30:46.049Z,36.98
2023-05-24T03:31:46.156Z,37.03
2023-05-24T03:32:46.060Z,36.96
2023-05-24T03:33:46.045Z,36.99
2023-05-24T03:34:46.096Z,37.03
2023-05-24T03:35:46.102Z,37.01
2023-05-24T03:36:46.114Z,37.01
2023-05-24T03:37:46.101Z,36.96
2023-05-24T03:38:46.114Z,36.98
2023-05-24T03:39:46.146Z,36.99
2023-05-24T03:40:46.131Z,36.95
2023-05-24T03:41:46.156Z,36.95
2023-05-24T03:42:46.128Z,37.02
2023-05-24T03:43:46.168Z,37.02
2023-05-24T03:44:46.154Z,37.02
2023-05-24T03:45:46.209Z,37.02
2023-05-24T03:46:46.168Z,36.99
2023-05-24T03:47:46.233Z,36.98
2023-05-24T03:48:46.244Z,37.02
2023-05-24T03:49:46.245Z,36.98
2023-05-24T03:50:46.319Z,37.03
2023-05-24T03:51:46.273Z,37.01
2023-05-24T03:52:46.251Z,36.98
2023-05-24T03:53:46.262Z,37.01
2023-05-24T03:54:46.267Z,36.95
2023-05-24T03:55:46.303Z,36.95
2023-05-24T03:56:46.296Z,36.99
2023-05-24T03:57:46.301Z,36.98
2023-05-24T03:58:46.327Z,37.02
2023-05-24T03:59:46.296Z,36.95
2023-05-24T04:00:46.307Z,36.94
2023-05-24T04:01:46.346Z,36.95
2023-05-24T04:02:46.390Z,37.00
2023-05-24T04:03:46.451Z,36.92
2023-05-24T04:04:46.376Z,36.95
2023-05-24T04:05:46.366Z,36.96
2023-05-24T04:06:46.380Z,36.94
2023-05-24T04:07:46.558Z,36.96
2023-05-24T04:08:46.399Z,36.95
2023-05-24T04:09:46.427Z,36.98
2023-05-24T04:10:46.455Z,36.96
2023-05-24T04:11:46.454Z,36.90
2023-05-24T04:12:46.470Z,36.88
2023-05-24T04:13:46.450Z,36.94
2023-05-24T04:14:46.506Z,36.90
2023-05-24T04:15:46.502Z,36.94
2023-05-24T04:16:46.554Z,36.91
2023-05-24T04:17:46.666Z,36.95
2023-05-24T04:18:46.692Z,36.92
2023-05-24T04:19:46.525Z,36.95
2023-05-24T04:20:46.588Z,36.93
2023-05-24T04:21:46.634Z,36.94
2023-05-24T04:22:46.632Z,36.93
2023-05-24T04:23:46.623Z,36.92
2023-05-24T04:24:46.685Z,36.94
2023-05-24T04:25:46.649Z,36.95
2023-05-24T04:26:46.651Z,36.92
2023-05-24T04:27:46.654Z,36.88
2023-05-24T04:28:46.698Z,36.90
2023-05-24T04:29:46.686Z,36.90
2023-05-24T04:30:46.716Z,36.91
2023-05-24T04:31:46.763Z,36.92
2023-05-24T04:32:46.869Z,36.92
2023-05-24T04:33:46.765Z,36.92
2023-05-24T04:34:46.788Z,36.92
2023-05-24T04:35:46.813Z,36.94
2023-05-24T04:36:46.798Z,36.93
2023-05-24T04:37:46.836Z,36.90
2023-05-24T04:38:46.864Z,36.87
2023-05-24T04:39:46.900Z,36.87
2023-05-24T04:40:46.886Z,36.87
2023-05-24T04:41:46.902Z,36.84
2023-05-24T04:42:46.949Z,36.83
2023-05-24T04:43:46.945Z,36.88
2023-05-24T04:44:46.961Z,36.90
2023-05-24T04:45:46.974Z,36.86
2023-05-24T04:46:47.037Z,36.82
2023-05-24T04:47:47.043Z,36.80
2023-05-24T04:48:47.013Z,36.79
2023-05-24T04:49:47.015Z,36.79
2023-05-24T04:50:47.052Z,36.79
2023-05-24T04:51:47.084Z,36.80
2023-05-24T04:52:47.122Z,36.74
2023-05-24T04:53:47.146Z,36.76
2023-05-24T04:54:47.124Z,36.76
2023-05-24T04:55:47.169Z,36.79
2023-05-24T04:56:47.170Z,36.81
2023-05-24T04:57:47.201Z,36.77
2023-05-24T04:58:47.226Z,36.76
2023-05-24T04:59:47.238Z,36.72
2023-05-24T05:00:54.253Z,36.72
2023-05-24T05:01:47.295Z,36.77
2023-05-24T05:02:47.349Z,36.75
2023-05-24T05:03:47.284Z,36.74
2023-05-24T05:04:47.231Z,36.71
2023-05-24T05:05:47.204Z,36.67
2023-05-24T05:06:47.226Z,36.69
2023-05-24T05:07:47.221Z,36.67
2023-05-24T05:08:47.203Z,36.67
2023-05-24T05:09:47.191Z,36.72
2023-05-24T05:10:47.219Z,36.68
2023-05-24T05:11:47.163Z,36.65
2023-05-24T05:12:47.217Z,36.69
2023-05-24T05:13:47.202Z,36.71
2023-05-24T05:14:47.175Z,36.65
2023-05-24T05:15:47.160Z,36.63
2023-05-24T05:16:47.433Z,36.68
2023-05-24T05:17:47.214Z,36.67
2023-05-24T05:18:47.151Z,36.65
2023-05-24T05:19:47.119Z,36.65
2023-05-24T05:20:47.452Z,36.68
2023-05-24T05:21:47.129Z,36.67
2023-05-24T05:22:47.123Z,36.69
2023-05-24T05:23:47.093Z,36.67
2023-05-24T05:24:47.099Z,36.67
2023-05-24T05:25:47.124Z,36.68
2023-05-24T05:26:47.081Z,36.62
2023-05-24T05:27:47.111Z,36.72
2023-05-24T05:28:47.067Z,36.70
2023-05-24T05:29:47.063Z,36.67
2023-05-24T05:30:47.055Z,36.67
2023-05-24T05:31:47.080Z,36.63
2023-05-24T05:32:47.321Z,36.62
2023-05-24T05:33:47.039Z,36.63
2023-05-24T05:34:47.044Z,36.55
2023-05-24T05:35:47.073Z,36.75
2023-05-24T05:36:47.020Z,37.00
2023-05-24T05:37:47.014Z,37.14
2023-05-24T05:38:47.040Z,37.17
2023-05-24T05:39:46.997Z,37.18
2023-05-24T05:40:47.012Z,37.25
2023-05-24T05:41:47.057Z,37.35
2023-05-24T05:42:46.991Z,37.45
2023-05-24T05:43:47.050Z,37.45
2023-05-24T05:44:46.988Z,37.50
2023-05-24T05:45:53.992Z,37.52
2023-05-24T05:46:46.969Z,37.62
2023-05-24T05:47:47.029Z,37.66
2023-05-24T05:48:46.994Z,37.70
2023-05-24T05:49:47.000Z,37.73
2023-05-24T05:50:46.974Z,37.72
2023-05-24T05:51:47.007Z,37.73
2023-05-24T05:52:46.924Z,37.72
2023-05-24T05:53:46.973Z,37.64
2023-05-24T05:54:46.947Z,37.65
2023-05-24T05:55:46.902Z,37.63
2023-05-24T05:56:46.932Z,37.65
2023-05-24T05:57:46.953Z,37.59
2023-05-24T05:58:46.909Z,37.63
2023-05-24T05:59:46.913Z,37.60
2023-05-24T06:00:46.887Z,37.60
2023-05-24T06:01:46.880Z,37.60
2023-05-24T06:02:47.083Z,37.64
2023-05-24T06:03:47.101Z,37.53
2023-05-24T06:04:46.909Z,37.53
2023-05-24T06:05:46.859Z,37.51
2023-05-24T06:06:46.851Z,37.54
2023-05-24T06:07:46.838Z,37.46
2023-05-24T06:08:46.850Z,37.48
2023-05-24T06:09:46.835Z,37.44
2023-05-24T06:10:46.853Z,37.41
2023-05-24T06:11:46.862Z,37.46
2023-05-24T06:12:46.874Z,37.46
2023-05-24T06:13:46.902Z,37.41
2023-05-24T06:14:46.922Z,37.40
2023-05-24T06:15:46.978Z,37.43
2023-05-24T06:16:46.976Z,37.36
2023-05-24T06:17:47.073Z,37.32
2023-05-24T06:18:57.211Z,37.33
2023-05-24T06:19:48.006Z,37.19
2023-05-24T06:20:47.110Z,37.14
2023-05-24T06:21:47.052Z,37.09
2023-05-24T06:22:46.995Z,37.05
2023-05-24T06:23:46.970Z,37.05
2023-05-24T06:24:46.969Z,37.01
2023-05-24T06:25:46.949Z,37.00
2023-05-24T06:26:46.964Z,36.96
2023-05-24T06:27:46.949Z,36.99
2023-05-24T06:28:46.952Z,36.94
2023-05-24T06:29:46.964Z,36.91
2023-05-24T06:30:47.033Z,36.86
2023-05-24T06:31:47.042Z,36.89
2023-05-24T06:32:46.958Z,36.86
2023-05-24T06:33:55.977Z,36.86
2023-05-24T06:34:47.910Z,36.82
2023-05-24T06:35:46.937Z,36.80
2023-05-24T06:36:46.897Z,36.81
2023-05-24T06:37:46.918Z,36.80
2023-05-24T06:38:47.006Z,36.78
2023-05-24T06:39:46.888Z,36.77
2023-05-24T06:40:46.889Z,36.74
2023-05-24T06:41:46.873Z,36.73
2023-05-24T06:42:46.856Z,36.71
2023-05-24T06:43:46.848Z,36.67
2023-05-24T06:44:46.850Z,36.64
2023-05-24T06:45:46.848Z,36.64
2023-05-24T06:46:46.901Z,36.63
2023-05-24T06:47:46.864Z,36.58
2023-05-24T06:48:46.886Z,36.58
2023-05-24T06:49:46.851Z,36.59
2023-05-24T06:50:47.095Z,36.56
2023-05-24T06:51:46.920Z,36.53
2023-05-24T06:52:46.813Z,36.55
2023-05-24T06:53:46.775Z,36.52
2023-05-24T06:54:46.793Z,36.53
2023-05-24T06:55:46.782Z,36.47
2023-05-24T06:56:46.872Z,36.42
2023-05-24T06:57:46.761Z,36.37
2023-05-24T06:58:46.789Z,36.38
2023-05-24T06:59:46.810Z,36.40
2023-05-24T07:00:46.984Z,36.37
2023-05-24T07:01:46.934Z,36.40
2023-05-24T07:02:46.888Z,36.38
2023-05-24T07:03:46.889Z,36.35
2023-05-24T07:04:46.949Z,36.36
2023-05-24T07:05:46.923Z,36.33
2023-05-24T07:06:46.961Z,36.31
2023-05-24T07:07:46.981Z,36.29
2023-05-24T07:08:46.948Z,36.28
2023-05-24T07:09:46.956Z,36.27
2023-05-24T07:10:46.962Z,36.20
2023-05-24T07:11:47.035Z,36.24
2023-05-24T07:12:46.972Z,36.19
2023-05-24T07:13:47.080Z,36.19
2023-05-24T07:14:47.027Z,36.20
2023-05-24T07:15:47.071Z,36.18
2023-05-24T07:16:47.075Z,36.16
2023-05-24T07:17:47.073Z,36.19
2023-05-24T07:18:47.064Z,36.15
2023-05-24T07:19:47.075Z,36.09
2023-05-24T07:20:47.435Z,36.13
2023-05-24T07:21:47.105Z,36.09
2023-05-24T07:22:47.117Z,36.08
2023-05-24T07:23:47.189Z,36.05
2023-05-24T07:24:47.138Z,36.00
2023-05-24T07:25:47.116Z,35.93
2023-05-24T07:26:47.097Z,35.95
2023-05-24T07:27:47.110Z,35.96
2023-05-24T07:28:47.149Z,35.99
2023-05-24T07:29:48.410Z,35.91
2023-05-24T07:30:47.234Z,35.93
2023-05-24T07:31:47.178Z,35.93
2023-05-24T07:32:47.312Z,35.94
2023-05-24T07:33:47.522Z,35.90
2023-05-24T07:34:47.151Z,35.93
2023-05-24T07:35:47.155Z,35.90
2023-05-24T07:36:47.168Z,35.88
2023-05-24T07:37:47.400Z,35.90
2023-05-24T07:38:48.163Z,35.90
2023-05-24T07:39:48.050Z,35.86
2023-05-24T07:40:47.282Z,35.82
2023-05-24T07:41:49.396Z,35.84
2023-05-24T07:42:47.884Z,35.84
2023-05-24T07:43:49.085Z,35.82
2023-05-24T07:44:47.879Z,35.77
2023-05-24T07:45:47.679Z,35.81
2023-05-24T07:46:47.898Z,35.82
2023-05-24T07:47:47.469Z,35.74
2023-05-24T07:48:47.419Z,35.77
2023-05-24T07:49:47.411Z,35.74
2023-05-24T07:50:47.393Z,35.78
2023-05-24T07:51:47.444Z,35.73
2023-05-24T07:52:47.421Z,35.73
2023-05-24T07:53:47.453Z,35.74
2023-05-24T07:54:47.416Z,35.74
2023-05-24T07:55:47.439Z,35.72
2023-05-24T07:56:47.472Z,35.71
2023-05-24T07:57:47.460Z,35.68
2023-05-24T07:58:47.557Z,35.61
2023-05-24T07:59:47.612Z,35.67
2023-05-24T08:00:47.613Z,35.65
2023-05-24T08:01:47.846Z,35.63
2023-05-24T08:02:47.728Z,35.62
2023-05-24T08:03:47.515Z,35.55
2023-05-24T08:04:47.506Z,35.55
2023-05-24T08:05:47.485Z,35.54
2023-05-24T08:06:47.536Z,35.57
2023-05-24T08:07:47.634Z,35.54
2023-05-24T08:08:47.499Z,35.51
2023-05-24T08:09:47.512Z,35.51
2023-05-24T08:10:47.572Z,35.52
2023-05-24T08:11:47.481Z,35.54
2023-05-24T08:12:48.172Z,35.48
2023-05-24T08:13:47.884Z,35.48
2023-05-24T08:14:49.035Z,35.49
2023-05-24T08:15:47.518Z,35.50
2023-05-24T08:16:47.526Z,35.43
2023-05-24T08:17:47.559Z,35.43
2023-05-24T08:18:47.495Z,35.42
2023-05-24T08:19:47.516Z,35.42
2023-05-24T08:20:47.557Z,35.44
2023-05-24T08:21:47.485Z,35.40
2023-05-24T08:22:47.486Z,35.40
2023-05-24T08:23:47.559Z,35.39
2023-05-24T08:24:47.501Z,35.37
2023-05-24T08:25:47.467Z,35.39
2023-05-24T08:26:47.459Z,35.35
2023-05-24T08:27:47.548Z,35.27
2023-05-24T08:28:47.504Z,35.34
2023-05-24T08:29:47.491Z,35.32
2023-05-24T08:30:47.564Z,35.29
2023-05-24T08:31:47.545Z,35.30
2023-05-24T08:32:47.519Z,35.31
2023-05-24T08:33:47.470Z,35.31
2023-05-24T08:34:47.471Z,35.26
2023-05-24T08:35:47.521Z,35.25
2023-05-24T08:36:47.458Z,35.26
2023-05-24T08:37:47.463Z,35.23
2023-05-24T08:38:48.614Z,35.18
2023-05-24T08:39:47.480Z,35.21
2023-05-24T08:40:47.439Z,35.21
2023-05-24T08:41:57.398Z,35.22
2023-05-24T08:42:48.442Z,35.24
2023-05-24T08:43:47.554Z,35.22
2023-05-24T08:44:47.412Z,35.25
2023-05-24T08:45:47.540Z,35.24
2023-05-24T08:46:47.503Z,35.24
2023-05-24T08:47:47.445Z,35.20
2023-05-24T08:48:47.706Z,35.24
2023-05-24T08:49:47.411Z,35.20
2023-05-24T08:50:47.364Z,35.24
2023-05-24T08:51:47.753Z,35.21
2023-05-24T08:52:47.937Z,35.22
2023-05-24T08:53:49.033Z,35.21
2023-05-24T08:54:48.067Z,35.27
2023-05-24T08:55:47.495Z,35.24
2023-05-24T08:56:48.074Z,35.28
2023-05-24T08:57:48.348Z,35.25
2023-05-24T08:58:47.738Z,35.28
2023-05-24T08:59:47.880Z,35.27
2023-05-24T09:00:48.600Z,35.29
2023-05-24T09:01:48.378Z,35.27
2023-05-24T09:02:47.815Z,35.25
2023-05-24T09:03:48.361Z,35.25
2023-05-24T09:04:47.720Z,35.22
2023-05-24T09:05:48.113Z,35.23
2023-05-24T09:06:48.998Z,35.24
2023-05-24T09:07:47.571Z,35.22
2023-05-24T09:08:48.191Z,35.22
2023-05-24T09:09:47.676Z,35.21
2023-05-24T09:10:54.884Z,35.20
2023-05-24T09:11:48.640Z,35.17
2023-05-24T09:12:48.345Z,35.18
2023-05-24T09:13:47.262Z,35.18
2023-05-24T09:14:47.276Z,35.21
2023-05-24T09:15:47.527Z,35.17
2023-05-24T09:16:47.312Z,35.19
2023-05-24T09:17:47.290Z,35.15
2023-05-24T09:18:47.220Z,35.17
2023-05-24T09:19:47.215Z,35.16
2023-05-24T09:20:47.548Z,35.19
2023-05-24T09:21:47.570Z,35.13
2023-05-24T09:22:47.906Z,35.15
2023-05-24T09:23:49.330Z,35.10
2023-05-24T09:24:48.523Z,35.14
2023-05-24T09:25:47.382Z,35.08
2023-05-24T09:26:47.361Z,35.09
2023-05-24T09:27:48.919Z,35.07
2023-05-24T09:28:47.402Z,35.05
2023-05-24T09:29:47.327Z,35.12
2023-05-24T09:30:47.350Z,35.05
2023-05-24T09:31:47.395Z,35.04
2023-05-24T09:32:47.409Z,35.02
2023-05-24T09:33:47.427Z,35.04
2023-05-24T09:34:47.404Z,35.01
2023-05-24T09:35:47.432Z,35.05
2023-05-24T09:36:47.436Z,35.11
2023-05-24T09:37:47.469Z,35.36
2023-05-24T09:38:47.493Z,35.41
2023-05-24T09:39:47.586Z,35.52
2023-05-24T09:40:47.495Z,36.48
2023-05-24T09:41:47.540Z,38.79
2023-05-24T09:42:47.505Z,37.96
2023-05-24T09:43:47.498Z,37.21
2023-05-24T09:44:47.602Z,36.58
2023-05-24T09:45:47.642Z,38.07
2023-05-24T09:46:47.656Z,37.40
2023-05-24T09:47:47.588Z,38.09
2023-05-24T09:48:47.617Z,38.01
2023-05-24T09:49:49.372Z,38.24
2023-05-24T09:50:47.739Z,38.03
2023-05-24T09:51:47.892Z,38.00
2023-05-24T09:52:47.755Z,38.54
2023-05-24T09:53:47.815Z,37.38
2023-05-24T09:54:48.126Z,36.76
2023-05-24T09:55:47.939Z,36.85
2023-05-24T09:56:48.007Z,36.89
2023-05-24T09:57:48.049Z,36.93
2023-05-24T09:58:48.127Z,37.03
2023-05-24T09:59:48.202Z,37.08
2023-05-24T10:00:48.443Z,37.27
2023-05-24T10:01:48.368Z,37.22
2023-05-24T10:03:48.402Z,37.04
2023-05-24T10:04:48.341Z,37.07
2023-05-24T10:05:48.332Z,37.12
2023-05-24T10:06:48.329Z,36.85
2023-05-24T10:07:48.421Z,36.78
2023-05-24T10:08:48.300Z,37.24
2023-05-24T10:09:48.590Z,37.13
2023-05-24T10:10:48.292Z,36.55
2023-05-24T10:11:48.330Z,35.97
2023-05-24T10:12:48.312Z,36.01
2023-05-24T10:13:48.302Z,35.93
2023-05-24T10:14:48.270Z,35.94
2023-05-24T10:15:48.308Z,35.99
2023-05-24T10:16:48.272Z,35.99
2023-05-24T10:17:48.302Z,35.96
2023-05-24T10:18:48.325Z,35.98
2023-05-24T10:19:48.254Z,35.98
2023-05-24T10:20:48.746Z,36.09
2023-05-24T10:21:48.270Z,36.17
2023-05-24T10:22:48.277Z,36.15
2023-05-24T10:23:48.243Z,36.26
2023-05-24T10:24:48.240Z,36.39
2023-05-24T10:25:48.233Z,36.40
2023-05-24T10:26:48.245Z,36.41
2023-05-24T10:27:48.198Z,36.42
2023-05-24T10:28:48.205Z,36.42
2023-05-24T10:29:48.163Z,36.46
2023-05-24T10:30:48.363Z,36.50
2023-05-24T10:31:48.356Z,36.66
2023-05-24T10:32:48.231Z,36.72
2023-05-24T10:33:48.150Z,36.79
2023-05-24T10:34:48.155Z,36.69
2023-05-24T10:35:48.634Z,36.63
2023-05-24T10:36:48.133Z,36.54
2023-05-24T10:37:48.111Z,36.45
2023-05-24T10:38:48.125Z,36.44
2023-05-24T10:39:48.143Z,36.40
2023-05-24T10:40:48.795Z,36.40
2023-05-24T10:41:48.128Z,36.37
2023-05-24T10:42:48.078Z,36.38
2023-05-24T10:44:00.698Z,36.41
2023-05-24T10:44:49.102Z,36.43
2023-05-24T10:45:48.075Z,36.42
2023-05-24T10:46:48.162Z,36.49
2023-05-24T10:47:48.060Z,36.53
2023-05-24T10:48:48.065Z,36.70
2023-05-24T10:49:48.053Z,36.97
2023-05-24T10:50:48.034Z,36.99
2023-05-24T10:51:48.039Z,36.94
2023-05-24T10:52:48.024Z,36.74
2023-05-24T10:53:48.026Z,36.64
2023-05-24T10:55:02.789Z,36.65
2023-05-24T10:55:48.982Z,36.58
2023-05-24T10:56:47.991Z,36.61
2023-05-24T10:57:47.986Z,36.62
2023-05-24T10:58:48.000Z,36.75
2023-05-24T10:59:47.956Z,36.81
2023-05-24T11:00:48.107Z,36.85
2023-05-24T11:01:48.007Z,36.94
2023-05-24T11:02:47.988Z,37.02
2023-05-24T11:03:47.949Z,37.00
2023-05-24T11:04:47.956Z,37.12
2023-05-24T11:05:48.028Z,37.20
2023-05-24T11:06:47.935Z,37.13
2023-05-24T11:07:47.905Z,37.09
2023-05-24T11:08:47.928Z,37.06
2023-05-24T11:09:47.890Z,37.05
2023-05-24T11:10:48.116Z,37.07
2023-05-24T11:11:48.655Z,37.15
2023-05-24T11:12:47.867Z,37.15
2023-05-24T11:13:47.896Z,37.16
2023-05-24T11:14:47.930Z,37.23
2023-05-24T11:15:48.124Z,37.23
2023-05-24T11:16:48.074Z,37.25
2023-05-24T11:17:48.062Z,37.38
2023-05-24T11:18:48.055Z,37.37
2023-05-24T11:19:48.077Z,37.36
2023-05-24T11:20:48.402Z,37.29
2023-05-24T11:21:48.120Z,37.33
2023-05-24T11:22:48.208Z,37.30
2023-05-24T11:23:48.208Z,37.23
2023-05-24T11:24:48.218Z,37.25
2023-05-24T11:25:48.661Z,37.18
2023-05-24T11:26:48.293Z,37.32
2023-05-24T11:27:48.362Z,37.36
2023-05-24T11:28:48.381Z,37.35
2023-05-24T11:29:48.587Z,37.61
2023-05-24T11:30:48.604Z,37.62
2023-05-24T11:31:48.519Z,37.97
2023-05-24T11:32:48.534Z,37.95
2023-05-24T11:33:48.506Z,37.83
2023-05-24T11:34:48.517Z,37.86
2023-05-24T11:35:48.668Z,37.80
2023-05-24T11:36:48.513Z,37.75
2023-05-24T11:37:48.536Z,37.81
2023-05-24T11:38:48.539Z,37.80
2023-05-24T11:39:48.486Z,37.92
2023-05-24T11:40:48.672Z,37.99
2023-05-24T11:41:48.568Z,37.97
2023-05-24T11:42:48.562Z,38.49
2023-05-24T11:43:48.595Z,38.49
2023-05-24T11:44:48.609Z,38.39
2023-05-24T11:45:48.713Z,38.40
2023-05-24T11:46:48.604Z,38.31
2023-05-24T11:47:48.642Z,38.26
2023-05-24T11:48:48.567Z,38.27
2023-05-24T11:49:48.592Z,38.26
2023-05-24T11:50:50.227Z,38.36
2023-05-24T11:51:48.708Z,38.46
2023-05-24T11:52:48.628Z,38.47
2023-05-24T11:53:48.634Z,38.48
2023-05-24T11:54:48.600Z,38.56
2023-05-24T11:55:48.673Z,38.57
2023-05-24T11:56:48.661Z,38.62
2023-05-24T11:57:48.726Z,38.65
2023-05-24T11:58:48.729Z,38.61
2023-05-24T11:59:48.747Z,38.63
2023-05-24T12:00:48.769Z,38.62
2023-05-24T12:01:48.758Z,38.63
2023-05-24T12:02:48.961Z,38.66
2023-05-24T12:03:48.858Z,38.66
2023-05-24T12:04:48.867Z,38.65
2023-05-24T12:05:48.820Z,38.67
2023-05-24T12:06:48.830Z,38.67
2023-05-24T12:07:48.855Z,38.65
2023-05-24T12:08:48.849Z,38.64
2023-05-24T12:09:48.832Z,38.66
2023-05-24T12:10:48.859Z,38.60
2023-05-24T12:11:48.850Z,38.63
2023-05-24T12:12:48.847Z,38.68
2023-05-24T12:13:48.861Z,38.55
2023-05-24T12:14:48.845Z,38.56
2023-05-24T12:15:48.880Z,38.51
2023-05-24T12:16:48.829Z,38.42
2023-05-24T12:17:48.859Z,38.41
2023-05-24T12:19:02.321Z,38.49
2023-05-24T12:19:49.871Z,38.52
2023-05-24T12:20:48.839Z,38.56
2023-05-24T12:21:51.462Z,38.52
2023-05-24T12:22:48.775Z,38.54
2023-05-24T12:23:48.790Z,38.57
2023-05-24T12:24:48.783Z,38.50
2023-05-24T12:25:48.804Z,38.41
2023-05-24T12:26:48.813Z,38.36
2023-05-24T12:27:48.765Z,38.34
2023-05-24T12:28:49.648Z,38.22
2023-05-24T12:29:48.762Z,38.40
2023-05-24T12:30:48.736Z,38.54
2023-05-24T12:31:48.752Z,38.47
2023-05-24T12:32:48.784Z,38.38
2023-05-24T12:33:48.701Z,38.38
2023-05-24T12:34:48.714Z,38.42
2023-05-24T12:35:48.717Z,38.35
2023-05-24T12:36:48.695Z,38.34
2023-05-24T12:37:48.704Z,38.25
2023-05-24T12:38:48.692Z,38.44
2023-05-24T12:39:48.740Z,38.58
2023-05-24T12:41:00.067Z,38.48
2023-05-24T12:41:49.660Z,38.36
2023-05-24T12:42:48.667Z,38.46
2023-05-24T12:43:48.672Z,38.28
2023-05-24T12:44:48.629Z,38.21
2023-05-24T12:45:48.649Z,38.18
2023-05-24T12:46:48.672Z,38.30
2023-05-24T12:47:48.706Z,38.96
2023-05-24T12:48:48.639Z,38.81
2023-05-24T12:49:48.640Z,38.82
2023-05-24T12:50:48.680Z,38.81
2023-05-24T12:51:49.717Z,38.87
2023-05-24T12:52:48.805Z,38.83
2023-05-24T12:53:48.851Z,38.84